Time;durP1;ratioP1;P1;durP2;ratioP2;P2;SDS_P1;SDS_P2;PMS_P1;PMS_P2;Temp;Humidity;BMP_temperature;BMP_pressure;BME280_temperature;BME280_humidity;BME280_pressure;Samples;Min_cycle;Max_cycle;Signal;HPM_P1;HPM_P2
2021/07/15 00:00:01;;;;;;;7.97;2.13;;;20.70;65.80;;;;;;5064736;28;20210;-68
2021/07/15 00:02:27;;;;;;;3.87;2.10;;;20.70;65.70;;;;;;5066198;28;20729;-68
2021/07/15 00:04:55;;;;;;;7.00;2.10;;;20.70;65.80;;;;;;5059847;28;20213;-68
2021/07/15 00:07:21;;;;;;;5.93;2.83;;;20.70;65.90;;;;;;5065686;28;20214;-68
2021/07/15 00:09:49;;;;;;;6.30;3.30;;;20.70;66.20;;;;;;5066011;28;20210;-68
2021/07/15 00:12:16;;;;;;;3.63;1.67;;;20.60;66.10;;;;;;5065694;28;20213;-68
2021/07/15 00:14:44;;;;;;;3.27;2.20;;;20.60;66.20;;;;;;5065704;28;20555;-68
2021/07/15 00:17:11;;;;;;;4.40;2.60;;;20.60;66.20;;;;;;5064938;28;20303;-68
2021/07/15 00:19:40;;;;;;;7.90;2.50;;;20.50;66.00;;;;;;5067366;28;20241;-68
2021/07/15 00:22:07;;;;;;;13.03;2.90;;;20.50;66.10;;;;;;5066572;28;20721;-68
2021/07/15 00:24:34;;;;;;;3.73;2.23;;;20.40;66.30;;;;;;5064051;28;20270;-68
2021/07/15 00:27:01;;;;;;;3.10;1.93;;;20.40;66.80;;;;;;5066876;28;20217;-68
2021/07/15 00:29:28;;;;;;;4.53;2.07;;;20.40;67.20;;;;;;5062880;28;20219;-68
2021/07/15 00:31:55;;;;;;;2.83;2.07;;;20.40;67.50;;;;;;5063175;28;20222;-68
2021/07/15 00:34:22;;;;;;;4.93;2.33;;;20.40;67.60;;;;;;5063146;28;20239;-68
2021/07/15 00:36:49;;;;;;;7.83;2.57;;;20.40;67.70;;;;;;5063191;28;20222;-68
2021/07/15 00:39:16;;;;;;;2.40;2.00;;;20.40;67.70;;;;;;5066861;28;20267;-68
2021/07/15 00:41:43;;;;;;;9.70;2.33;;;20.40;67.70;;;;;;5063361;28;20288;-68
2021/07/15 00:44:10;;;;;;;5.67;2.40;;;20.30;67.40;;;;;;5066963;28;20210;-68
2021/07/15 00:46:37;;;;;;;4.77;2.30;;;20.20;67.40;;;;;;5062827;28;20625;-68
2021/07/15 00:49:04;;;;;;;5.13;2.30;;;20.10;67.50;;;;;;5066882;28;20222;-68
2021/07/15 00:51:31;;;;;;;10.37;2.60;;;20.00;67.60;;;;;;5068666;28;20214;-68
2021/07/15 00:53:59;;;;;;;5.40;2.00;;;20.00;67.90;;;;;;5068075;28;20211;-68
2021/07/15 00:56:27;;;;;;;7.87;2.77;;;20.00;68.00;;;;;;5065550;28;20221;-68
2021/07/15 00:58:54;;;;;;;6.83;2.97;;;20.00;68.00;;;;;;5062345;28;20213;-68
2021/07/15 01:01:21;;;;;;;5.90;2.87;;;20.00;68.10;;;;;;5064877;28;20234;-68
2021/07/15 01:03:50;;;;;;;4.23;2.20;;;19.90;68.30;;;;;;5063157;28;20532;-68
2021/07/15 01:06:17;;;;;;;4.90;2.07;;;19.90;68.70;;;;;;5062760;28;20283;-68
2021/07/15 01:08:44;;;;;;;5.13;2.33;;;19.90;68.70;;;;;;5065346;28;20214;-68
2021/07/15 01:11:33;;;;;;;3.97;2.53;;;19.90;69.00;;;;;;5063492;28;20218;-68
2021/07/15 01:14:07;;;;;;;3.97;1.93;;;19.80;69.30;;;;;;5064473;28;20640;-68
2021/07/15 01:16:46;;;;;;;2.83;2.13;;;19.80;69.70;;;;;;5063371;28;20218;-68
2021/07/15 01:19:19;;;;;;;4.33;2.27;;;19.80;70.80;;;;;;5063066;28;20757;-68
2021/07/15 01:22:05;;;;;;;4.80;2.30;;;19.70;70.60;;;;;;5062136;28;20227;-68
2021/07/15 01:25:09;;;;;;;3.73;2.10;;;19.70;70.90;;;;;;5063160;28;20210;-68
2021/07/15 01:27:45;;;;;;;6.00;2.20;;;19.60;70.30;;;;;;5064221;28;20603;-68
2021/07/15 01:30:14;;;;;;;5.03;2.30;;;19.60;70.30;;;;;;5058859;28;20214;-68
2021/07/15 01:32:54;;;;;;;3.53;2.23;;;19.40;70.60;;;;;;5065836;28;20222;-68
2021/07/15 01:35:28;;;;;;;5.03;2.33;;;19.30;71.20;;;;;;5059785;28;20215;-68
2021/07/15 01:37:59;;;;;;;6.40;2.10;;;19.30;71.40;;;;;;5062992;28;20527;-68
2021/07/15 01:40:33;;;;;;;5.37;2.27;;;19.20;71.60;;;;;;5065432;28;20209;-68
2021/07/15 01:43:05;;;;;;;13.47;2.43;;;19.20;71.80;;;;;;5065421;28;20291;-68
2021/07/15 01:45:33;;;;;;;6.47;2.10;;;19.20;71.80;;;;;;5064602;28;20218;-68
2021/07/15 01:48:00;;;;;;;9.17;2.20;;;19.20;71.50;;;;;;5063703;28;20306;-68
2021/07/15 01:50:28;;;;;;;2.47;1.90;;;19.20;71.30;;;;;;5064165;28;20224;-68
2021/07/15 01:52:59;;;;;;;4.60;2.23;;;19.20;71.30;;;;;;5065807;28;20212;-68
2021/07/15 01:55:27;;;;;;;3.43;2.10;;;19.10;71.40;;;;;;5061764;28;20218;-68
2021/07/15 01:57:55;;;;;;;2.97;2.00;;;19.10;71.70;;;;;;5064796;28;20529;-68
2021/07/15 02:00:23;;;;;;;5.63;2.77;;;19.10;71.90;;;;;;5061967;28;20229;-68
2021/07/15 02:02:52;;;;;;;7.07;1.93;;;19.00;71.90;;;;;;5062123;28;20245;-68
2021/07/15 02:05:20;;;;;;;2.97;2.00;;;19.00;71.90;;;;;;5061028;28;20241;-68
2021/07/15 02:07:47;;;;;;;7.20;2.47;;;19.00;71.90;;;;;;5065777;28;20207;-68
2021/07/15 02:10:24;;;;;;;7.77;2.33;;;19.00;72.00;;;;;;5064502;28;20272;-68
2021/07/15 02:12:51;;;;;;;9.50;2.60;;;19.00;72.00;;;;;;5063060;28;20221;-68
2021/07/15 02:15:18;;;;;;;2.23;1.77;;;19.00;72.00;;;;;;5064238;28;20745;-68
2021/07/15 02:17:47;;;;;;;4.03;2.30;;;19.00;71.90;;;;;;5065130;28;20216;-68
2021/07/15 02:20:19;;;;;;;3.07;1.97;;;18.90;71.70;;;;;;5064631;28;20220;-68
2021/07/15 02:22:46;;;;;;;6.53;2.40;;;18.90;71.70;;;;;;5061188;28;20656;-68
2021/07/15 02:25:16;;;;;;;6.37;2.50;;;18.90;71.80;;;;;;5060852;28;20210;-68
2021/07/15 02:27:45;;;;;;;4.73;2.10;;;19.00;72.00;;;;;;5064315;28;20210;-68
2021/07/15 02:30:16;;;;;;;4.83;2.13;;;18.90;71.60;;;;;;5062232;28;20230;-68
2021/07/15 02:32:58;;;;;;;3.27;2.63;;;18.90;71.40;;;;;;5060978;28;20218;-68
2021/07/15 02:35:32;;;;;;;5.27;2.17;;;18.90;71.40;;;;;;5061257;28;20218;-68
2021/07/15 02:38:02;;;;;;;4.03;1.90;;;18.90;71.50;;;;;;5062473;28;20218;-68
2021/07/15 02:40:29;;;;;;;3.70;2.60;;;19.00;71.60;;;;;;5064348;28;20232;-68
2021/07/15 02:42:57;;;;;;;4.27;2.27;;;19.00;71.60;;;;;;5062534;28;20240;-68
2021/07/15 02:45:25;;;;;;;6.53;2.13;;;19.00;71.30;;;;;;5065084;28;20225;-69
2021/07/15 02:47:52;;;;;;;7.20;2.53;;;19.00;70.90;;;;;;5062755;28;20210;-68
2021/07/15 02:50:22;;;;;;;2.83;2.40;;;18.90;70.90;;;;;;5064473;28;20206;-68
2021/07/15 02:52:50;;;;;;;4.13;2.23;;;18.90;71.10;;;;;;5066276;28;20271;-68
2021/07/15 02:55:18;;;;;;;4.40;2.33;;;18.90;71.20;;;;;;5066874;28;20216;-68
2021/07/15 02:57:55;;;;;;;6.30;2.40;;;18.90;71.40;;;;;;5061536;28;20202;-68
2021/07/15 03:00:23;;;;;;;9.07;2.57;;;18.90;71.60;;;;;;5062382;28;20698;-68
2021/07/15 03:03:37;;;;;;;4.77;2.40;;;18.80;71.70;;;;;;5063368;28;20324;-68
2021/07/15 03:06:13;;;;;;;3.63;2.03;;;18.80;71.90;;;;;;5033988;28;20275;-68
2021/07/15 03:08:56;;;;;;;2.63;2.20;;;18.80;72.00;;;;;;5064730;28;20214;-68
2021/07/15 03:11:37;;;;;;;3.70;1.90;;;18.70;72.40;;;;;;5061412;28;20221;-68
2021/07/15 03:14:06;;;;;;;5.30;2.27;;;18.70;72.70;;;;;;5063010;28;20226;-68
2021/07/15 03:16:37;;;;;;;4.80;2.60;;;18.70;73.50;;;;;;5062173;28;20263;-68
2021/07/15 03:19:05;;;;;;;5.50;2.60;;;18.70;73.10;;;;;;5060460;28;20364;-68
2021/07/15 03:21:33;;;;;;;4.33;2.10;;;18.70;73.20;;;;;;5065501;28;20233;-68
2021/07/15 03:24:03;;;;;;;3.87;2.57;;;18.70;73.30;;;;;;5066869;28;20203;-68
2021/07/15 03:26:31;;;;;;;5.40;2.37;;;18.70;73.50;;;;;;5064593;28;20221;-68
2021/07/15 03:28:59;;;;;;;5.77;2.70;;;18.70;73.40;;;;;;5065259;28;20219;-68
2021/07/15 03:31:28;;;;;;;10.40;2.73;;;18.70;73.20;;;;;;5067641;28;20221;-68
2021/07/15 03:33:55;;;;;;;5.93;2.57;;;18.60;72.90;;;;;;5065497;28;20793;-68
2021/07/15 03:36:23;;;;;;;4.03;2.57;;;18.50;73.30;;;;;;5066734;28;20213;-68
2021/07/15 03:38:51;;;;;;;3.87;2.70;;;18.40;73.90;;;;;;5066143;28;20214;-69
2021/07/15 03:41:18;;;;;;;3.20;2.57;;;18.40;74.30;;;;;;5066095;28;20214;-68
2021/07/15 03:43:46;;;;;;;3.83;2.80;;;18.40;74.20;;;;;;5068235;28;20259;-68
2021/07/15 03:46:14;;;;;;;11.27;2.97;;;18.30;73.90;;;;;;5066433;28;20617;-68
2021/07/15 03:48:43;;;;;;;3.63;2.77;;;18.10;74.00;;;;;;5065333;28;20210;-68
2021/07/15 03:51:11;;;;;;;6.77;3.33;;;18.10;74.40;;;;;;5067303;28;20214;-68
2021/07/15 03:53:41;;;;;;;3.90;3.03;;;18.00;75.40;;;;;;5064056;28;20547;-68
2021/07/15 03:56:10;;;;;;;3.77;2.70;;;18.00;75.10;;;;;;5064020;28;20229;-68
2021/07/15 03:58:41;;;;;;;8.30;2.90;;;18.10;75.30;;;;;;5068294;28;20275;-68
2021/07/15 04:01:10;;;;;;;5.17;2.80;;;18.20;75.30;;;;;;5065350;28;20640;-68
2021/07/15 04:03:39;;;;;;;7.90;3.17;;;18.20;75.20;;;;;;5066032;28;20238;-68
2021/07/15 04:06:08;;;;;;;4.10;2.60;;;18.10;75.00;;;;;;5065890;28;20634;-68
2021/07/15 04:08:38;;;;;;;10.80;3.47;;;18.10;74.80;;;;;;5066158;28;20244;-68
2021/07/15 04:11:07;;;;;;;5.73;3.10;;;18.10;74.90;;;;;;5067653;28;20217;-68
2021/07/15 04:13:35;;;;;;;7.13;3.10;;;18.10;75.00;;;;;;5066123;28;20213;-68
2021/07/15 04:16:21;;;;;;;7.07;3.40;;;18.10;75.00;;;;;;5063616;28;20318;-68
2021/07/15 04:18:52;;;;;;;6.73;2.97;;;18.10;74.90;;;;;;5067476;28;20690;-68
2021/07/15 04:21:19;;;;;;;8.27;2.83;;;18.10;74.90;;;;;;5066892;28;20286;-68
2021/07/15 04:23:47;;;;;;;6.80;2.50;;;18.20;75.00;;;;;;5063816;28;20230;-68
2021/07/15 04:26:16;;;;;;;5.17;2.50;;;18.20;74.90;;;;;;5064463;28;20220;-68
2021/07/15 04:28:45;;;;;;;7.43;2.73;;;18.30;74.90;;;;;;5063474;28;20257;-68
2021/07/15 04:31:31;;;;;;;5.77;3.27;;;18.30;74.60;;;;;;5066828;28;20599;-68
2021/07/15 04:34:00;;;;;;;5.13;2.67;;;18.30;74.30;;;;;;5065692;28;20535;-68
2021/07/15 04:36:31;;;;;;;5.87;2.97;;;18.40;74.10;;;;;;5067364;28;20209;-68
2021/07/15 04:39:01;;;;;;;4.40;2.67;;;18.50;73.90;;;;;;5063769;28;20287;-68
2021/07/15 04:41:29;;;;;;;4.73;1.70;;;18.60;73.60;;;;;;5065681;28;20210;-68
2021/07/15 04:43:58;;;;;;;4.90;2.23;;;18.70;73.90;;;;;;5067008;28;20599;-68
2021/07/15 04:46:26;;;;;;;5.20;2.50;;;18.80;72.70;;;;;;5065159;28;20594;-68
2021/07/15 04:48:53;;;;;;;4.63;2.40;;;19.00;72.00;;;;;;5064874;28;20218;-68
2021/07/15 04:51:22;;;;;;;2.83;2.00;;;19.20;71.20;;;;;;5065485;28;20218;-68
2021/07/15 04:53:50;;;;;;;4.77;1.80;;;19.30;70.40;;;;;;5063644;28;20218;-68
2021/07/15 04:56:18;;;;;;;3.07;2.23;;;19.50;69.80;;;;;;5064134;28;20701;-68
2021/07/15 04:58:46;;;;;;;4.87;2.17;;;19.60;69.50;;;;;;5066564;28;20287;-68
2021/07/15 05:01:13;;;;;;;3.20;1.93;;;19.80;69.60;;;;;;5063265;28;20221;-68
2021/07/15 05:03:40;;;;;;;3.77;1.90;;;19.90;69.50;;;;;;5066867;28;20245;-68
2021/07/15 05:06:08;;;;;;;3.40;1.90;;;20.10;68.90;;;;;;5062888;28;20210;-68
2021/07/15 05:08:39;;;;;;;4.30;2.03;;;20.30;68.30;;;;;;5066337;28;20210;-68
2021/07/15 05:11:10;;;;;;;5.67;2.40;;;20.50;67.70;;;;;;5063653;28;20210;-68
2021/07/15 05:13:38;;;;;;;4.47;1.97;;;20.70;66.90;;;;;;5065511;28;20210;-68
2021/07/15 05:16:05;;;;;;;3.87;1.90;;;20.80;66.10;;;;;;5064367;28;21009;-69
2021/07/15 05:18:34;;;;;;;2.47;1.70;;;20.90;65.40;;;;;;5066011;28;20249;-68
2021/07/15 05:21:02;;;;;;;7.23;2.00;;;21.00;64.70;;;;;;5063602;28;20616;-68
2021/07/15 05:23:29;;;;;;;5.00;1.70;;;21.10;64.20;;;;;;5064863;28;20241;-68
2021/07/15 05:25:56;;;;;;;4.43;2.10;;;21.20;63.90;;;;;;5062559;28;20218;-68
2021/07/15 05:28:24;;;;;;;4.47;2.30;;;21.20;63.30;;;;;;5062578;28;20560;-68
2021/07/15 05:30:51;;;;;;;6.63;2.50;;;21.30;63.10;;;;;;5069602;28;20213;-68
2021/07/15 05:33:19;;;;;;;7.17;2.67;;;21.30;63.00;;;;;;5062185;28;20214;-68
2021/07/15 05:35:46;;;;;;;4.23;2.77;;;21.40;62.70;;;;;;5065900;28;20224;-68
2021/07/15 05:38:13;;;;;;;3.70;2.63;;;21.40;62.50;;;;;;5062464;28;20219;-68
2021/07/15 05:40:40;;;;;;;7.47;3.17;;;21.40;62.50;;;;;;5065722;28;20213;-68
2021/07/15 05:43:07;;;;;;;5.60;2.80;;;21.40;62.30;;;;;;5063295;28;20238;-68
2021/07/15 05:45:34;;;;;;;5.93;2.37;;;21.30;62.20;;;;;;5064256;28;20620;-68
2021/07/15 05:48:01;;;;;;;3.67;2.57;;;21.30;62.90;;;;;;5061991;28;20252;-69
2021/07/15 05:50:28;;;;;;;5.90;2.83;;;21.30;63.20;;;;;;5062645;28;20218;-68
2021/07/15 05:52:55;;;;;;;9.23;3.53;;;21.30;63.20;;;;;;5060920;28;20617;-68
2021/07/15 05:55:22;;;;;;;6.53;2.97;;;21.30;63.30;;;;;;5065876;28;20218;-68
2021/07/15 05:57:49;;;;;;;6.23;2.53;;;21.30;63.50;;;;;;5064269;28;20247;-69
2021/07/15 06:00:16;;;;;;;5.77;2.63;;;21.30;63.50;;;;;;5063352;28;20260;-68
2021/07/15 06:02:43;;;;;;;5.13;2.90;;;21.40;63.50;;;;;;5063758;28;20244;-68
2021/07/15 06:05:25;;;;;;;4.87;2.40;;;21.50;63.30;;;;;;5065365;28;20217;-68
2021/07/15 06:07:52;;;;;;;10.30;3.00;;;21.70;62.70;;;;;;5062540;28;20213;-68
2021/07/15 06:10:20;;;;;;;3.73;2.50;;;22.00;62.10;;;;;;5060556;28;20593;-68
2021/07/15 06:12:47;;;;;;;5.43;2.43;;;22.30;60.90;;;;;;5064718;28;20224;-68
2021/07/15 06:15:14;;;;;;;5.03;2.43;;;22.70;59.50;;;;;;5064580;28;20232;-68
2021/07/15 06:17:42;;;;;;;4.77;1.83;;;23.10;58.30;;;;;;5063732;28;20275;-68
2021/07/15 06:20:13;;;;;;;2.43;2.00;;;23.40;57.50;;;;;;5061736;28;20308;-68
2021/07/15 06:22:41;;;;;;;4.70;2.43;;;23.60;56.40;;;;;;5061786;28;20257;-68
2021/07/15 06:25:10;;;;;;;4.10;1.93;;;23.80;55.40;;;;;;5062833;28;20218;-68
2021/07/15 06:27:38;;;;;;;5.57;2.17;;;24.10;54.80;;;;;;5058630;28;20198;-68
2021/07/15 06:30:07;;;;;;;5.13;2.80;;;24.20;54.20;;;;;;5063461;28;20218;-68
2021/07/15 06:32:34;;;;;;;4.13;2.43;;;24.40;53.90;;;;;;5061147;28;20228;-69
2021/07/15 06:35:02;;;;;;;11.77;2.97;;;24.50;53.80;;;;;;5064400;28;20224;-69
2021/07/15 06:37:39;;;;;;;11.33;3.30;;;24.60;53.10;;;;;;5060638;28;20248;-69
2021/07/15 06:40:09;;;;;;;5.17;2.70;;;24.70;52.60;;;;;;5059864;28;20695;-69
2021/07/15 06:42:37;;;;;;;4.67;2.37;;;24.70;51.90;;;;;;5062319;28;20238;-69
2021/07/15 06:45:07;;;;;;;9.80;2.87;;;24.60;52.00;;;;;;5065941;28;20209;-69
2021/07/15 06:47:35;;;;;;;20.40;3.40;;;24.70;52.30;;;;;;5063705;28;20307;-69
2021/07/15 06:50:04;;;;;;;32.23;5.00;;;24.60;51.80;;;;;;5061851;28;20283;-69
2021/07/15 06:52:31;;;;;;;27.37;4.10;;;24.50;52.00;;;;;;5060124;28;20222;-69
2021/07/15 06:55:01;;;;;;;25.70;4.30;;;24.40;52.90;;;;;;5060374;28;20218;-69
2021/07/15 06:57:33;;;;;;;37.37;5.03;;;24.40;53.20;;;;;;5070055;28;20202;-69
2021/07/15 07:00:03;;;;;;;18.40;4.20;;;24.50;53.60;;;;;;5068109;28;20225;-69
2021/07/15 07:02:30;;;;;;;13.87;2.77;;;24.60;53.60;;;;;;5065935;28;20766;-69
2021/07/15 07:04:58;;;;;;;4.87;2.43;;;24.80;53.70;;;;;;5068923;28;20620;-68
2021/07/15 07:07:25;;;;;;;4.50;2.20;;;25.10;53.70;;;;;;5066416;28;20221;-68
2021/07/15 07:09:52;;;;;;;5.80;2.23;;;25.40;52.40;;;;;;5069267;28;20206;-68
2021/07/15 07:12:19;;;;;;;4.30;1.93;;;25.90;51.10;;;;;;5068813;28;20209;-68
2021/07/15 07:14:46;;;;;;;9.83;2.70;;;26.40;49.70;;;;;;5071430;28;20263;-68
2021/07/15 07:17:13;;;;;;;5.43;2.43;;;26.70;48.60;;;;;;5069031;28;20213;-68
2021/07/15 07:19:40;;;;;;;8.03;2.80;;;27.10;47.70;;;;;;5068135;28;20273;-68
2021/07/15 07:22:07;;;;;;;3.70;1.53;;;27.50;46.90;;;;;;5070478;28;20450;-68
2021/07/15 07:24:35;;;;;;;3.70;1.37;;;27.80;46.20;;;;;;5065679;28;20324;-69
2021/07/15 07:27:02;;;;;;;4.80;1.53;;;28.10;44.90;;;;;;5070869;28;20213;-69
2021/07/15 07:29:29;;;;;;;5.00;2.07;;;28.40;43.50;;;;;;5067194;28;20216;-69
2021/07/15 07:31:56;;;;;;;4.77;1.90;;;28.70;43.50;;;;;;5066161;28;20614;-69
2021/07/15 07:34:23;;;;;;;5.93;2.23;;;28.90;43.20;;;;;;5067240;28;20215;-69
2021/07/15 07:36:50;;;;;;;3.97;1.90;;;29.10;42.90;;;;;;5070824;28;20274;-69
2021/07/15 07:39:17;;;;;;;4.80;1.50;;;29.40;42.90;;;;;;5067579;28;20222;-69
2021/07/15 07:41:44;;;;;;;3.07;1.60;;;29.50;42.60;;;;;;5070554;28;20224;-69
2021/07/15 07:44:11;;;;;;;4.43;1.67;;;29.50;41.50;;;;;;5069483;28;20234;-69
2021/07/15 07:46:38;;;;;;;4.20;1.97;;;29.50;41.30;;;;;;5067224;28;20218;-69
2021/07/15 07:49:05;;;;;;;7.03;1.97;;;29.10;41.40;;;;;;5070016;28;20297;-69
2021/07/15 07:51:33;;;;;;;7.33;2.00;;;28.80;42.40;;;;;;5068408;28;20268;-69
2021/07/15 07:54:00;;;;;;;3.77;1.63;;;28.60;43.00;;;;;;5066998;28;20246;-69
2021/07/15 07:56:27;;;;;;;4.27;1.90;;;28.40;43.10;;;;;;5070844;28;20217;-69
2021/07/15 07:58:55;;;;;;;4.13;1.90;;;28.40;43.10;;;;;;5071498;28;20312;-69
2021/07/15 08:01:22;;;;;;;4.30;1.80;;;28.40;43.20;;;;;;5070508;28;20272;-69
2021/07/15 08:03:49;;;;;;;9.93;2.00;;;28.40;43.70;;;;;;5068849;28;20230;-69
2021/07/15 08:06:16;;;;;;;3.63;1.73;;;28.70;43.00;;;;;;5066722;28;20651;-69
2021/07/15 08:08:43;;;;;;;3.43;1.63;;;29.10;42.60;;;;;;5065491;28;20208;-69
2021/07/15 08:11:10;;;;;;;5.13;1.53;;;29.30;42.60;;;;;;5066257;28;20218;-69
2021/07/15 08:13:38;;;;;;;4.87;1.63;;;29.60;42.00;;;;;;5067499;28;20604;-69
2021/07/15 08:16:05;;;;;;;1.93;1.50;;;29.80;41.70;;;;;;5067535;28;20266;-69
2021/07/15 08:18:32;;;;;;;6.10;1.40;;;29.80;41.30;;;;;;5064042;28;20242;-69
2021/07/15 08:21:00;;;;;;;4.90;1.83;;;29.70;40.70;;;;;;5066927;28;20217;-69
2021/07/15 08:23:26;;;;;;;2.30;1.17;;;29.40;40.10;;;;;;5063703;28;20772;-69
2021/07/15 08:25:53;;;;;;;8.10;1.90;;;29.00;39.80;;;;;;5063417;28;20275;-69
2021/07/15 08:28:21;;;;;;;2.57;1.10;;;28.80;40.70;;;;;;5061957;28;20232;-69
2021/07/15 08:30:47;;;;;;;4.60;1.17;;;28.70;40.90;;;;;;5063083;28;20709;-69
2021/07/15 08:33:14;;;;;;;3.23;1.10;;;28.70;40.90;;;;;;5061926;28;20210;-69
2021/07/15 08:35:41;;;;;;;2.87;1.30;;;28.50;41.00;;;;;;5066311;28;20214;-69
2021/07/15 08:38:10;;;;;;;4.33;1.10;;;28.30;41.00;;;;;;5063434;28;20621;-69
2021/07/15 08:40:37;;;;;;;4.27;1.57;;;28.10;41.40;;;;;;5064313;28;20567;-69
2021/07/15 08:43:06;;;;;;;2.83;1.20;;;27.90;40.90;;;;;;5063620;28;20242;-69
2021/07/15 08:45:35;;;;;;;4.80;1.57;;;27.90;41.50;;;;;;5064077;28;20214;-69
2021/07/15 08:48:06;;;;;;;3.47;1.40;;;27.80;41.80;;;;;;5064707;28;20344;-69
2021/07/15 08:50:33;;;;;;;5.00;1.67;;;28.00;42.90;;;;;;5062123;28;20209;-69
2021/07/15 08:53:00;;;;;;;2.67;1.13;;;28.00;42.40;;;;;;5064124;28;20222;-69
2021/07/15 08:58:16;;;;;;;5.00;1.40;;;28.00;43.50;;;;;;5064961;28;20214;-69
2021/07/15 09:00:44;;;;;;;3.47;1.27;;;28.10;42.90;;;;;;5061700;28;20268;-69
2021/07/15 09:03:12;;;;;;;4.60;1.30;;;28.20;42.50;;;;;;5062393;28;20253;-69
2021/07/15 09:05:41;;;;;;;2.33;1.37;;;28.20;42.90;;;;;;5062009;28;20272;-69
2021/07/15 09:08:08;;;;;;;3.70;1.63;;;28.30;42.70;;;;;;5065986;28;20217;-69
2021/07/15 09:10:39;;;;;;;1.90;1.20;;;28.50;42.80;;;;;;5062330;28;20221;-69
2021/07/15 09:13:06;;;;;;;4.27;1.50;;;28.50;42.30;;;;;;5064787;28;20226;-69
2021/07/15 09:15:33;;;;;;;4.53;1.47;;;28.60;42.80;;;;;;5061549;28;20210;-69
2021/07/15 09:18:00;;;;;;;5.60;1.70;;;28.60;42.90;;;;;;5064966;28;20300;-69
2021/07/15 09:20:29;;;;;;;4.37;1.37;;;28.60;43.50;;;;;;5062642;28;20222;-69
2021/07/15 09:23:04;;;;;;;5.43;1.70;;;28.90;43.20;;;;;;5065272;28;20209;-69
2021/07/15 09:25:37;;;;;;;5.87;1.40;;;29.40;43.10;;;;;;5064827;28;20833;-69
2021/07/15 09:28:11;;;;;;;7.60;1.70;;;29.70;41.80;;;;;;5062459;28;20651;-69
2021/07/15 09:30:39;;;;;;;9.10;2.00;;;29.60;42.00;;;;;;5059434;28;20206;-69
2021/07/15 09:33:12;;;;;;;4.40;1.50;;;29.40;42.40;;;;;;5065484;28;20244;-69
2021/07/15 09:35:44;;;;;;;7.17;1.77;;;29.10;42.60;;;;;;5065198;28;20605;-70
2021/07/15 09:38:25;;;;;;;4.93;1.80;;;28.90;43.00;;;;;;5063678;28;20214;-68
2021/07/15 09:40:55;;;;;;;5.07;1.90;;;28.60;44.10;;;;;;5063596;28;20210;-68
2021/07/15 09:43:26;;;;;;;7.10;1.63;;;28.50;44.50;;;;;;5063100;28;20222;-68
2021/07/15 09:46:00;;;;;;;7.53;1.80;;;28.40;45.10;;;;;;5063678;28;20221;-68
2021/07/15 09:48:27;;;;;;;5.87;1.90;;;28.30;45.70;;;;;;5066193;28;20210;-69
2021/07/15 09:50:58;;;;;;;3.83;1.70;;;28.30;45.60;;;;;;5060916;28;20210;-69
2021/07/15 09:53:26;;;;;;;5.40;1.83;;;28.20;45.80;;;;;;5061871;28;20218;-68
2021/07/15 09:55:59;;;;;;;6.13;1.70;;;28.20;45.70;;;;;;5061470;28;20217;-69
2021/07/15 09:58:34;;;;;;;3.57;1.50;;;28.20;45.40;;;;;;5066215;28;20345;-68
2021/07/15 10:01:08;;;;;;;7.77;1.83;;;28.10;45.50;;;;;;5065703;28;20291;-68
2021/07/15 10:03:55;;;;;;;8.93;2.47;;;28.00;45.40;;;;;;5061659;28;20265;-68
2021/07/15 10:06:23;;;;;;;2.17;1.50;;;28.00;45.30;;;;;;5065883;28;20206;-69
2021/07/15 10:08:54;;;;;;;6.47;1.77;;;28.10;45.50;;;;;;5062585;28;20912;-68
2021/07/15 10:11:24;;;;;;;2.27;1.20;;;28.10;44.70;;;;;;5065032;28;20210;-68
2021/07/15 10:14:02;;;;;;;4.03;1.50;;;28.30;44.90;;;;;;5062018;28;20268;-69
2021/07/15 10:16:41;;;;;;;7.83;1.87;;;28.40;44.90;;;;;;5063467;28;20224;-69
2021/07/15 10:19:25;;;;;;;10.47;2.43;;;28.50;44.50;;;;;;5064728;28;20245;-68
2021/07/15 10:22:02;;;;;;;4.53;1.77;;;28.50;44.30;;;;;;5059866;28;20219;-69
2021/07/15 10:24:30;;;;;;;7.40;2.17;;;28.50;44.40;;;;;;5064940;28;20240;-69
2021/07/15 10:27:00;;;;;;;3.17;1.50;;;28.60;44.40;;;;;;5061319;28;20217;-69
2021/07/15 10:29:27;;;;;;;6.70;1.57;;;28.90;44.40;;;;;;5062009;28;20675;-69
2021/07/15 10:31:54;;;;;;;4.43;1.70;;;29.40;43.10;;;;;;5063639;28;20217;-68
2021/07/15 10:34:22;;;;;;;5.50;1.60;;;29.80;42.90;;;;;;5062010;28;20221;-68
2021/07/15 10:36:54;;;;;;;2.57;1.37;;;30.00;42.00;;;;;;5063989;28;20605;-68
2021/07/15 10:39:26;;;;;;;3.93;1.60;;;30.10;41.80;;;;;;5063470;28;20229;-68
2021/07/15 10:41:56;;;;;;;6.53;1.97;;;30.20;42.10;;;;;;5061370;28;20213;-69
2021/07/15 10:44:25;;;;;;;3.67;1.33;;;30.30;41.50;;;;;;5064929;28;20234;-68
2021/07/15 10:46:53;;;;;;;3.70;1.63;;;30.40;40.80;;;;;;5061014;28;20910;-68
2021/07/15 10:49:22;;;;;;;4.63;1.40;;;30.30;41.00;;;;;;5061063;28;20210;-68
2021/07/15 10:51:52;;;;;;;8.20;1.73;;;30.30;41.40;;;;;;5060770;28;20211;-68
2021/07/15 10:54:21;;;;;;;7.70;1.83;;;30.20;41.90;;;;;;5063908;28;20350;-68
2021/07/15 10:56:49;;;;;;;3.37;1.63;;;30.10;42.20;;;;;;5062654;28;20214;-68
2021/07/15 10:59:23;;;;;;;3.97;1.80;;;30.00;41.70;;;;;;5064979;28;20217;-68
2021/07/15 11:01:50;;;;;;;4.17;1.47;;;29.70;42.10;;;;;;5062025;28;20211;-68
2021/07/15 11:04:32;;;;;;;9.03;2.73;;;29.30;42.50;;;;;;5064633;28;20320;-69
2021/07/15 11:07:20;;;;;;;6.63;2.00;;;29.10;43.50;;;;;;5062727;28;20221;-69
2021/07/15 11:09:48;;;;;;;7.07;1.57;;;29.10;44.20;;;;;;5061567;28;20215;-69
2021/07/15 11:12:29;;;;;;;8.07;1.83;;;29.20;43.50;;;;;;5064045;28;20221;-68
2021/07/15 11:15:02;;;;;;;3.47;1.60;;;29.50;43.70;;;;;;5064785;28;20552;-68
2021/07/15 11:17:40;;;;;;;8.40;3.07;;;29.80;43.00;;;;;;5064715;28;20221;-68
2021/07/15 11:20:13;;;;;;;10.83;3.13;;;30.10;42.40;;;;;;5060612;28;20240;-69
2021/07/15 11:22:50;;;;;;;7.03;2.17;;;30.50;41.70;;;;;;5057653;28;20209;-68
2021/07/15 11:25:35;;;;;;;9.77;1.90;;;30.50;41.30;;;;;;5060489;28;20812;-69
2021/07/15 11:28:23;;;;;;;3.10;1.30;;;30.40;41.70;;;;;;5062042;28;20217;-70
2021/07/15 11:30:55;;;;;;;17.23;5.93;;;30.10;42.30;;;;;;5060698;28;20244;-68
2021/07/15 11:33:22;;;;;;;3.27;1.43;;;29.80;42.00;;;;;;5063025;28;20249;-68
2021/07/15 11:36:11;;;;;;;3.60;1.70;;;29.70;42.90;;;;;;5061742;28;20217;-69
2021/07/15 11:38:58;;;;;;;10.60;3.83;;;29.70;42.60;;;;;;5062283;28;20221;-68
2021/07/15 11:41:46;;;;;;;12.90;4.03;;;29.60;43.10;;;;;;5061163;28;20249;-68
2021/07/15 11:44:13;;;;;;;7.23;2.60;;;29.50;43.00;;;;;;5067192;28;20676;-68
2021/07/15 11:46:40;;;;;;;36.03;12.83;;;29.50;43.30;;;;;;5064154;28;20214;-68
2021/07/15 11:49:09;;;;;;;7.97;2.90;;;29.70;43.00;;;;;;5064521;28;20276;-68
2021/07/15 11:51:36;;;;;;;3.67;1.87;;;30.00;42.60;;;;;;5064224;28;20268;-68
2021/07/15 11:54:46;;;;;;;9.00;2.23;;;30.00;42.90;;;;;;5067110;28;20213;-68
2021/07/15 11:57:13;;;;;;;4.47;1.63;;;30.00;43.10;;;;;;5064555;28;20251;-68
2021/07/15 11:59:45;;;;;;;3.10;1.53;;;30.00;43.00;;;;;;5066549;28;20225;-68
2021/07/15 12:02:24;;;;;;;4.80;1.60;;;30.10;42.40;;;;;;5066769;28;20217;-69
2021/07/15 12:05:13;;;;;;;6.73;1.73;;;30.00;42.20;;;;;;5064142;28;20313;-68
2021/07/15 12:08:05;;;;;;;3.23;1.40;;;30.00;41.50;;;;;;5064259;28;20222;-68
2021/07/15 12:10:37;;;;;;;9.80;1.77;;;30.00;41.40;;;;;;5064451;28;20210;-68
2021/07/15 12:13:10;;;;;;;7.23;2.33;;;30.20;40.70;;;;;;5067692;28;20214;-68
2021/07/15 12:15:40;;;;;;;4.07;2.07;;;30.30;40.80;;;;;;5067700;28;20217;-68
2021/07/15 12:18:16;;;;;;;4.37;1.90;;;30.40;41.40;;;;;;5063761;28;20218;-67
2021/07/15 12:20:52;;;;;;;12.07;3.13;;;30.50;42.00;;;;;;5065175;28;20274;-68
2021/07/15 12:23:34;;;;;;;9.63;3.13;;;30.60;42.00;;;;;;5064208;28;20614;-68
2021/07/15 12:26:04;;;;;;;3.47;2.00;;;30.70;41.90;;;;;;5064433;28;20210;-68
2021/07/15 12:28:32;;;;;;;4.80;1.40;;;30.80;42.20;;;;;;5067263;28;20225;-69
2021/07/15 12:31:02;;;;;;;4.07;1.50;;;30.80;42.00;;;;;;5063987;28;20210;-68
2021/07/15 12:33:39;;;;;;;4.17;1.53;;;30.90;41.20;;;;;;5065398;28;20662;-68
2021/07/15 12:36:10;;;;;;;6.10;2.03;;;30.80;40.70;;;;;;5067202;28;20213;-68
2021/07/15 12:38:38;;;;;;;4.97;1.80;;;30.90;40.40;;;;;;5064428;28;20206;-68
2021/07/15 12:41:22;;;;;;;5.60;2.03;;;30.90;40.60;;;;;;5065309;28;20271;-68
2021/07/15 12:43:56;;;;;;;1.87;1.23;;;30.80;41.30;;;;;;5066884;28;20220;-69
2021/07/15 12:46:29;;;;;;;5.63;1.90;;;30.70;40.80;;;;;;5063017;28;20272;-69
2021/07/15 12:49:05;;;;;;;6.33;1.70;;;30.70;41.20;;;;;;5066929;28;20201;-68
2021/07/15 12:51:50;;;;;;;4.77;1.47;;;30.60;41.40;;;;;;5061154;28;20210;-68
2021/07/15 12:54:35;;;;;;;5.50;1.60;;;30.60;41.40;;;;;;5062970;28;20551;-68
2021/07/15 12:57:07;;;;;;;5.33;1.90;;;30.60;41.60;;;;;;5061368;28;20253;-68
2021/07/15 12:59:36;;;;;;;3.37;1.63;;;30.80;41.40;;;;;;5065771;28;20210;-68
2021/07/15 13:02:33;;;;;;;4.13;1.63;;;30.90;41.00;;;;;;5063378;28;20727;-68
2021/07/15 13:05:15;;;;;;;4.63;1.53;;;31.40;40.90;;;;;;5063476;28;20249;-69